sensor_id;sensor_type;location;lat;lon;timestamp;temperature;humidity
15983;DHT22;14442;50.196;8.096;2023-03-14T00:01:09;24.80;43.60
15983;DHT22;14442;50.196;8.096;2023-03-14T00:03:36;24.80;43.60
15983;DHT22;14442;50.196;8.096;2023-03-14T00:06:03;24.70;43.50
15983;DHT22;14442;50.196;8.096;2023-03-14T00:08:30;24.70;43.50
15983;DHT22;14442;50.196;8.096;2023-03-14T00:10:56;24.70;43.50
15983;DHT22;14442;50.196;8.096;2023-03-14T00:13:25;24.80;43.70
15983;DHT22;14442;50.196;8.096;2023-03-14T00:15:52;24.70;43.60
15983;DHT22;14442;50.196;8.096;2023-03-14T00:18:18;24.70;43.50
15983;DHT22;14442;50.196;8.096;2023-03-14T00:20:45;24.70;43.50
15983;DHT22;14442;50.196;8.096;2023-03-14T00:23:12;24.70;43.60
15983;DHT22;14442;50.196;8.096;2023-03-14T00:25:38;24.60;43.50
15983;DHT22;14442;50.196;8.096;2023-03-14T00:28:05;24.70;43.60
15983;DHT22;14442;50.196;8.096;2023-03-14T00:30:33;24.60;43.60
15983;DHT22;14442;50.196;8.096;2023-03-14T00:33:00;24.60;43.50
15983;DHT22;14442;50.196;8.096;2023-03-14T00:35:26;24.60;43.60
15983;DHT22;14442;50.196;8.096;2023-03-14T00:37:53;24.60;44.20
15983;DHT22;14442;50.196;8.096;2023-03-14T00:40:20;24.60;43.60
15983;DHT22;14442;50.196;8.096;2023-03-14T00:42:47;24.60;43.60
15983;DHT22;14442;50.196;8.096;2023-03-14T00:45:13;24.50;43.50
15983;DHT22;14442;50.196;8.096;2023-03-14T00:47:41;24.50;43.50
15983;DHT22;14442;50.196;8.096;2023-03-14T00:50:11;24.50;43.50
15983;DHT22;14442;50.196;8.096;2023-03-14T00:52:38;24.50;43.50
15983;DHT22;14442;50.196;8.096;2023-03-14T00:55:05;24.50;43.50
15983;DHT22;14442;50.196;8.096;2023-03-14T00:57:32;24.50;43.60
15983;DHT22;14442;50.196;8.096;2023-03-14T00:59:58;24.50;43.60
15983;DHT22;14442;50.196;8.096;2023-03-14T01:02:25;24.50;43.50
15983;DHT22;14442;50.196;8.096;2023-03-14T01:04:53;24.50;43.60
15983;DHT22;14442;50.196;8.096;2023-03-14T01:07:20;24.40;43.50
15983;DHT22;14442;50.196;8.096;2023-03-14T01:09:46;24.50;43.60
15983;DHT22;14442;50.196;8.096;2023-03-14T01:12:13;24.40;43.50
15983;DHT22;14442;50.196;8.096;2023-03-14T01:14:40;24.40;43.50
15983;DHT22;14442;50.196;8.096;2023-03-14T01:17:06;24.50;43.60
15983;DHT22;14442;50.196;8.096;2023-03-14T01:19:33;24.40;43.50
15983;DHT22;14442;50.196;8.096;2023-03-14T01:22:01;24.40;43.50
15983;DHT22;14442;50.196;8.096;2023-03-14T01:24:28;24.40;43.50
15983;DHT22;14442;50.196;8.096;2023-03-14T01:26:54;24.40;43.50
15983;DHT22;14442;50.196;8.096;2023-03-14T01:29:21;24.30;43.50
15983;DHT22;14442;50.196;8.096;2023-03-14T01:31:48;24.40;43.50
15983;DHT22;14442;50.196;8.096;2023-03-14T01:34:15;24.30;43.50
15983;DHT22;14442;50.196;8.096;2023-03-14T01:36:41;24.30;43.50
15983;DHT22;14442;50.196;8.096;2023-03-14T01:39:09;24.30;43.50
15983;DHT22;14442;50.196;8.096;2023-03-14T01:41:36;24.30;43.50
15983;DHT22;14442;50.196;8.096;2023-03-14T01:44:03;24.30;43.50
15983;DHT22;14442;50.196;8.096;2023-03-14T01:46:34;24.30;43.50
15983;DHT22;14442;50.196;8.096;2023-03-14T01:49:07;24.30;43.50
15983;DHT22;14442;50.196;8.096;2023-03-14T01:51:39;24.30;43.50
15983;DHT22;14442;50.196;8.096;2023-03-14T01:54:13;24.30;43.60
15983;DHT22;14442;50.196;8.096;2023-03-14T01:56:41;24.20;43.50
15983;DHT22;14442;50.196;8.096;2023-03-14T01:59:09;24.20;43.40
15983;DHT22;14442;50.196;8.096;2023-03-14T02:01:38;24.20;43.50
15983;DHT22;14442;50.196;8.096;2023-03-14T02:04:07;24.20;43.40
15983;DHT22;14442;50.196;8.096;2023-03-14T02:06:40;24.20;44.10
15983;DHT22;14442;50.196;8.096;2023-03-14T02:09:10;24.20;43.50
15983;DHT22;14442;50.196;8.096;2023-03-14T02:11:36;24.20;43.40
15983;DHT22;14442;50.196;8.096;2023-03-14T02:14:04;24.20;43.40
15983;DHT22;14442;50.196;8.096;2023-03-14T02:16:30;24.10;43.30
15983;DHT22;14442;50.196;8.096;2023-03-14T02:18:57;24.10;43.30
15983;DHT22;14442;50.196;8.096;2023-03-14T02:21:34;24.10;43.30
15983;DHT22;14442;50.196;8.096;2023-03-14T02:24:12;24.10;43.30
15983;DHT22;14442;50.196;8.096;2023-03-14T02:26:44;24.10;43.40
15983;DHT22;14442;50.196;8.096;2023-03-14T02:29:13;24.10;43.30
15983;DHT22;14442;50.196;8.096;2023-03-14T02:31:39;24.10;43.30
15983;DHT22;14442;50.196;8.096;2023-03-14T02:34:06;24.10;43.30
15983;DHT22;14442;50.196;8.096;2023-03-14T02:36:33;24.10;43.30
15983;DHT22;14442;50.196;8.096;2023-03-14T02:39:05;24.10;43.40
15983;DHT22;14442;50.196;8.096;2023-03-14T02:41:34;24.10;43.40
15983;DHT22;14442;50.196;8.096;2023-03-14T02:44:01;24.00;43.30
15983;DHT22;14442;50.196;8.096;2023-03-14T02:46:29;24.00;43.40
15983;DHT22;14442;50.196;8.096;2023-03-14T02:48:58;24.00;43.30
15983;DHT22;14442;50.196;8.096;2023-03-14T02:51:27;24.00;43.20
15983;DHT22;14442;50.196;8.096;2023-03-14T02:53:55;24.00;43.30
15983;DHT22;14442;50.196;8.096;2023-03-14T02:56:22;24.00;43.30
15983;DHT22;14442;50.196;8.096;2023-03-14T02:58:48;24.00;43.30
15983;DHT22;14442;50.196;8.096;2023-03-14T03:01:15;23.90;43.20
15983;DHT22;14442;50.196;8.096;2023-03-14T03:03:43;23.90;43.20
15983;DHT22;14442;50.196;8.096;2023-03-14T03:06:10;23.90;43.30
15983;DHT22;14442;50.196;8.096;2023-03-14T03:08:36;23.90;43.30
15983;DHT22;14442;50.196;8.096;2023-03-14T03:11:04;23.90;43.20
15983;DHT22;14442;50.196;8.096;2023-03-14T03:13:31;23.90;43.20
15983;DHT22;14442;50.196;8.096;2023-03-14T03:15:58;23.90;43.20
15983;DHT22;14442;50.196;8.096;2023-03-14T03:18:24;23.90;43.30
15983;DHT22;14442;50.196;8.096;2023-03-14T03:20:52;23.90;43.20
15983;DHT22;14442;50.196;8.096;2023-03-14T03:23:19;23.90;43.20
15983;DHT22;14442;50.196;8.096;2023-03-14T03:25:48;23.90;43.20
15983;DHT22;14442;50.196;8.096;2023-03-14T03:28:15;23.80;43.10
15983;DHT22;14442;50.196;8.096;2023-03-14T03:30:42;23.90;43.20
15983;DHT22;14442;50.196;8.096;2023-03-14T03:33:09;23.80;43.10
15983;DHT22;14442;50.196;8.096;2023-03-14T03:35:42;23.80;43.10
15983;DHT22;14442;50.196;8.096;2023-03-14T03:38:10;23.80;43.10
15983;DHT22;14442;50.196;8.096;2023-03-14T03:40:38;23.80;43.10
15983;DHT22;14442;50.196;8.096;2023-03-14T03:43:04;23.80;43.10
15983;DHT22;14442;50.196;8.096;2023-03-14T03:45:31;23.80;43.10
15983;DHT22;14442;50.196;8.096;2023-03-14T03:47:58;23.80;43.10
15983;DHT22;14442;50.196;8.096;2023-03-14T03:50:24;23.80;43.10
15983;DHT22;14442;50.196;8.096;2023-03-14T03:52:51;23.70;43.00
15983;DHT22;14442;50.196;8.096;2023-03-14T03:55:19;23.80;43.10
15983;DHT22;14442;50.196;8.096;2023-03-14T03:57:45;23.70;43.00
15983;DHT22;14442;50.196;8.096;2023-03-14T04:00:13;23.70;43.00
15983;DHT22;14442;50.196;8.096;2023-03-14T04:02:39;23.70;43.00
15983;DHT22;14442;50.196;8.096;2023-03-14T04:05:07;23.70;43.00
15983;DHT22;14442;50.196;8.096;2023-03-14T04:07:34;23.70;43.00
15983;DHT22;14442;50.196;8.096;2023-03-14T04:10:00;23.70;43.10
15983;DHT22;14442;50.196;8.096;2023-03-14T04:12:28;23.70;43.10
15983;DHT22;14442;50.196;8.096;2023-03-14T04:14:55;23.70;43.10
15983;DHT22;14442;50.196;8.096;2023-03-14T04:17:22;23.70;43.10
15983;DHT22;14442;50.196;8.096;2023-03-14T04:19:48;23.70;43.10
15983;DHT22;14442;50.196;8.096;2023-03-14T04:22:16;23.60;43.10
15983;DHT22;14442;50.196;8.096;2023-03-14T04:24:43;23.70;43.10
15983;DHT22;14442;50.196;8.096;2023-03-14T04:27:10;23.60;43.00
15983;DHT22;14442;50.196;8.096;2023-03-14T04:29:38;23.60;42.90
15983;DHT22;14442;50.196;8.096;2023-03-14T04:32:04;23.60;43.00
15983;DHT22;14442;50.196;8.096;2023-03-14T04:34:31;23.60;42.90
15983;DHT22;14442;50.196;8.096;2023-03-14T04:36:58;23.60;43.00
15983;DHT22;14442;50.196;8.096;2023-03-14T04:39:24;23.60;43.00
15983;DHT22;14442;50.196;8.096;2023-03-14T04:41:51;23.60;43.00
15983;DHT22;14442;50.196;8.096;2023-03-14T04:44:18;23.60;43.00
15983;DHT22;14442;50.196;8.096;2023-03-14T04:46:46;23.60;42.90
15983;DHT22;14442;50.196;8.096;2023-03-14T04:49:13;23.50;42.90
15983;DHT22;14442;50.196;8.096;2023-03-14T04:51:39;23.50;42.90
15983;DHT22;14442;50.196;8.096;2023-03-14T04:54:07;23.60;43.00
15983;DHT22;14442;50.196;8.096;2023-03-14T04:56:33;23.50;42.90
15983;DHT22;14442;50.196;8.096;2023-03-14T04:59:00;23.50;42.90
15983;DHT22;14442;50.196;8.096;2023-03-14T05:01:26;23.50;43.00
15983;DHT22;14442;50.196;8.096;2023-03-14T05:03:54;23.50;42.90
15983;DHT22;14442;50.196;8.096;2023-03-14T05:06:21;23.50;42.90
15983;DHT22;14442;50.196;8.096;2023-03-14T05:08:48;23.50;42.90
15983;DHT22;14442;50.196;8.096;2023-03-14T05:11:14;23.50;42.90
15983;DHT22;14442;50.196;8.096;2023-03-14T05:13:41;23.40;42.90
15983;DHT22;14442;50.196;8.096;2023-03-14T05:16:10;23.40;42.90
15983;DHT22;14442;50.196;8.096;2023-03-14T05:18:37;23.40;42.90
15983;DHT22;14442;50.196;8.096;2023-03-14T05:21:06;23.40;42.80
15983;DHT22;14442;50.196;8.096;2023-03-14T05:23:32;23.50;42.90
15983;DHT22;14442;50.196;8.096;2023-03-14T05:25:59;23.40;42.80
15983;DHT22;14442;50.196;8.096;2023-03-14T05:28:26;23.40;42.80
15983;DHT22;14442;50.196;8.096;2023-03-14T05:30:52;23.40;42.80
15983;DHT22;14442;50.196;8.096;2023-03-14T05:33:19;23.50;42.90
15983;DHT22;14442;50.196;8.096;2023-03-14T05:35:46;23.40;42.80
15983;DHT22;14442;50.196;8.096;2023-03-14T05:38:14;23.40;42.80
15983;DHT22;14442;50.196;8.096;2023-03-14T05:40:41;23.40;42.80
15983;DHT22;14442;50.196;8.096;2023-03-14T05:43:08;23.40;43.40
15983;DHT22;14442;50.196;8.096;2023-03-14T05:45:35;23.40;42.80
15983;DHT22;14442;50.196;8.096;2023-03-14T05:48:02;23.40;42.80
15983;DHT22;14442;50.196;8.096;2023-03-14T05:50:29;23.40;42.70
15983;DHT22;14442;50.196;8.096;2023-03-14T05:52:56;23.40;42.80
15983;DHT22;14442;50.196;8.096;2023-03-14T05:55:24;23.40;42.80
15983;DHT22;14442;50.196;8.096;2023-03-14T05:57:50;23.40;42.70
15983;DHT22;14442;50.196;8.096;2023-03-14T06:00:19;23.40;42.70
15983;DHT22;14442;50.196;8.096;2023-03-14T06:02:46;23.40;42.70
15983;DHT22;14442;50.196;8.096;2023-03-14T06:05:13;23.40;42.70
15983;DHT22;14442;50.196;8.096;2023-03-14T06:07:39;23.40;42.70
15983;DHT22;14442;50.196;8.096;2023-03-14T06:10:07;23.40;42.70
15983;DHT22;14442;50.196;8.096;2023-03-14T06:12:35;23.40;42.70
15983;DHT22;14442;50.196;8.096;2023-03-14T06:15:02;23.40;42.70
15983;DHT22;14442;50.196;8.096;2023-03-14T06:17:28;23.30;42.70
15983;DHT22;14442;50.196;8.096;2023-03-14T06:19:55;23.30;42.60
15983;DHT22;14442;50.196;8.096;2023-03-14T06:22:22;23.30;42.60
15983;DHT22;14442;50.196;8.096;2023-03-14T06:24:48;23.30;42.60
15983;DHT22;14442;50.196;8.096;2023-03-14T06:27:15;23.40;42.70
15983;DHT22;14442;50.196;8.096;2023-03-14T06:29:43;23.30;42.70
15983;DHT22;14442;50.196;8.096;2023-03-14T06:32:10;23.40;42.70
15983;DHT22;14442;50.196;8.096;2023-03-14T06:34:37;23.30;42.60
15983;DHT22;14442;50.196;8.096;2023-03-14T06:37:03;23.30;42.70
15983;DHT22;14442;50.196;8.096;2023-03-14T06:39:31;23.30;42.60
15983;DHT22;14442;50.196;8.096;2023-03-14T06:41:57;23.40;42.70
15983;DHT22;14442;50.196;8.096;2023-03-14T06:44:24;23.30;42.70
15983;DHT22;14442;50.196;8.096;2023-03-14T06:46:53;23.40;42.70
15983;DHT22;14442;50.196;8.096;2023-03-14T06:49:19;23.30;43.30
15983;DHT22;14442;50.196;8.096;2023-03-14T06:51:46;23.30;42.60
15983;DHT22;14442;50.196;8.096;2023-03-14T06:54:13;23.30;42.50
15983;DHT22;14442;50.196;8.096;2023-03-14T06:56:39;23.30;42.60
15983;DHT22;14442;50.196;8.096;2023-03-14T06:59:06;23.30;42.50
15983;DHT22;14442;50.196;8.096;2023-03-14T07:01:33;23.30;42.80
15983;DHT22;14442;50.196;8.096;2023-03-14T07:04:01;23.40;42.70
15983;DHT22;14442;50.196;8.096;2023-03-14T07:08:59;23.40;42.60
15983;DHT22;14442;50.196;8.096;2023-03-14T07:11:26;23.40;42.80
15983;DHT22;14442;50.196;8.096;2023-03-14T07:13:52;23.50;42.90
15983;DHT22;14442;50.196;8.096;2023-03-14T07:16:19;23.60;42.90
15983;DHT22;14442;50.196;8.096;2023-03-14T07:18:46;23.60;43.40
15983;DHT22;14442;50.196;8.096;2023-03-14T07:21:15;23.60;43.50
15983;DHT22;14442;50.196;8.096;2023-03-14T07:23:42;23.70;43.90
15983;DHT22;14442;50.196;8.096;2023-03-14T07:26:09;23.70;44.60
15983;DHT22;14442;50.196;8.096;2023-03-14T07:28:35;23.70;44.10
15983;DHT22;14442;50.196;8.096;2023-03-14T07:31:02;23.70;44.50
15983;DHT22;14442;50.196;8.096;2023-03-14T07:33:29;23.70;44.60
15983;DHT22;14442;50.196;8.096;2023-03-14T07:35:56;23.80;44.80
15983;DHT22;14442;50.196;8.096;2023-03-14T07:38:24;23.80;45.10
15983;DHT22;14442;50.196;8.096;2023-03-14T07:40:52;23.80;45.20
15983;DHT22;14442;50.196;8.096;2023-03-14T07:43:24;23.80;45.10
15983;DHT22;14442;50.196;8.096;2023-03-14T07:45:51;23.80;45.00
15983;DHT22;14442;50.196;8.096;2023-03-14T07:48:18;23.80;45.20
15983;DHT22;14442;50.196;8.096;2023-03-14T07:50:48;23.80;45.10
15983;DHT22;14442;50.196;8.096;2023-03-14T07:53:14;23.90;45.40
15983;DHT22;14442;50.196;8.096;2023-03-14T07:55:43;23.90;45.40
15983;DHT22;14442;50.196;8.096;2023-03-14T07:58:09;23.90;46.10
15983;DHT22;14442;50.196;8.096;2023-03-14T08:00:36;23.90;46.40
15983;DHT22;14442;50.196;8.096;2023-03-14T08:03:03;23.90;46.10
15983;DHT22;14442;50.196;8.096;2023-03-14T08:05:30;23.90;45.90
15983;DHT22;14442;50.196;8.096;2023-03-14T08:07:56;23.90;46.00
15983;DHT22;14442;50.196;8.096;2023-03-14T08:10:23;23.90;46.10
15983;DHT22;14442;50.196;8.096;2023-03-14T08:12:53;23.90;46.00
15983;DHT22;14442;50.196;8.096;2023-03-14T08:15:20;23.90;46.50
15983;DHT22;14442;50.196;8.096;2023-03-14T08:17:47;24.00;45.80
15983;DHT22;14442;50.196;8.096;2023-03-14T08:20:16;23.90;45.80
15983;DHT22;14442;50.196;8.096;2023-03-14T08:22:43;23.90;46.20
15983;DHT22;14442;50.196;8.096;2023-03-14T08:25:10;23.90;46.70
15983;DHT22;14442;50.196;8.096;2023-03-14T08:27:36;23.90;46.90
15983;DHT22;14442;50.196;8.096;2023-03-14T08:30:07;23.90;46.30
15983;DHT22;14442;50.196;8.096;2023-03-14T08:32:34;23.90;45.70
15983;DHT22;14442;50.196;8.096;2023-03-14T08:35:01;23.90;45.60
15983;DHT22;14442;50.196;8.096;2023-03-14T08:37:28;23.90;45.90
15983;DHT22;14442;50.196;8.096;2023-03-14T08:39:54;23.90;45.80
15983;DHT22;14442;50.196;8.096;2023-03-14T08:42:21;23.80;45.60
15983;DHT22;14442;50.196;8.096;2023-03-14T08:44:48;23.80;45.50
15983;DHT22;14442;50.196;8.096;2023-03-14T08:47:16;23.70;45.40
15983;DHT22;14442;50.196;8.096;2023-03-14T08:49:42;23.60;45.10
15983;DHT22;14442;50.196;8.096;2023-03-14T08:52:09;23.60;45.00
15983;DHT22;14442;50.196;8.096;2023-03-14T08:54:36;23.60;45.00
15983;DHT22;14442;50.196;8.096;2023-03-14T08:57:03;23.60;44.70
15983;DHT22;14442;50.196;8.096;2023-03-14T08:59:29;23.60;44.60
15983;DHT22;14442;50.196;8.096;2023-03-14T09:01:56;23.50;44.40
15983;DHT22;14442;50.196;8.096;2023-03-14T09:04:24;23.50;44.20
15983;DHT22;14442;50.196;8.096;2023-03-14T09:06:51;23.50;44.10
15983;DHT22;14442;50.196;8.096;2023-03-14T09:09:17;23.50;44.10
15983;DHT22;14442;50.196;8.096;2023-03-14T09:11:44;23.50;43.90
15983;DHT22;14442;50.196;8.096;2023-03-14T09:14:11;23.50;43.90
15983;DHT22;14442;50.196;8.096;2023-03-14T09:16:38;23.50;43.80
15983;DHT22;14442;50.196;8.096;2023-03-14T09:19:04;23.50;43.70
15983;DHT22;14442;50.196;8.096;2023-03-14T09:21:32;23.50;43.70
15983;DHT22;14442;50.196;8.096;2023-03-14T09:23:59;23.40;43.60
15983;DHT22;14442;50.196;8.096;2023-03-14T09:26:26;23.40;43.60
15983;DHT22;14442;50.196;8.096;2023-03-14T09:28:53;23.40;43.50
15983;DHT22;14442;50.196;8.096;2023-03-14T09:31:19;23.40;43.50
15983;DHT22;14442;50.196;8.096;2023-03-14T09:33:46;23.40;43.50
15983;DHT22;14442;50.196;8.096;2023-03-14T09:36:13;23.40;43.50
15983;DHT22;14442;50.196;8.096;2023-03-14T09:38:41;23.40;43.40
15983;DHT22;14442;50.196;8.096;2023-03-14T09:41:15;23.40;43.40
15983;DHT22;14442;50.196;8.096;2023-03-14T09:43:43;23.40;43.40
15983;DHT22;14442;50.196;8.096;2023-03-14T09:46:12;23.40;43.40
15983;DHT22;14442;50.196;8.096;2023-03-14T09:48:39;23.50;43.50
15983;DHT22;14442;50.196;8.096;2023-03-14T09:51:11;23.40;43.40
15983;DHT22;14442;50.196;8.096;2023-03-14T09:53:43;23.40;43.40
15983;DHT22;14442;50.196;8.096;2023-03-14T09:56:13;23.40;43.40
15983;DHT22;14442;50.196;8.096;2023-03-14T09:58:46;23.40;43.50
15983;DHT22;14442;50.196;8.096;2023-03-14T10:01:16;23.40;43.50
15983;DHT22;14442;50.196;8.096;2023-03-14T10:03:45;23.40;43.50
15983;DHT22;14442;50.196;8.096;2023-03-14T10:06:13;23.40;43.50
15983;DHT22;14442;50.196;8.096;2023-03-14T10:08:42;23.40;43.50
15983;DHT22;14442;50.196;8.096;2023-03-14T10:11:14;23.40;43.40
15983;DHT22;14442;50.196;8.096;2023-03-14T10:13:50;23.40;43.50
15983;DHT22;14442;50.196;8.096;2023-03-14T10:16:19;23.40;43.40
15983;DHT22;14442;50.196;8.096;2023-03-14T10:19:02;23.40;43.40
15983;DHT22;14442;50.196;8.096;2023-03-14T10:21:29;23.30;43.30
15983;DHT22;14442;50.196;8.096;2023-03-14T10:24:09;23.40;43.40
15983;DHT22;14442;50.196;8.096;2023-03-14T10:26:37;23.40;43.40
15983;DHT22;14442;50.196;8.096;2023-03-14T10:29:09;23.30;43.30
15983;DHT22;14442;50.196;8.096;2023-03-14T10:31:47;23.40;43.40
15983;DHT22;14442;50.196;8.096;2023-03-14T10:34:17;23.30;43.30
15983;DHT22;14442;50.196;8.096;2023-03-14T10:36:44;23.30;43.30
15983;DHT22;14442;50.196;8.096;2023-03-14T10:39:37;23.30;43.40
15983;DHT22;14442;50.196;8.096;2023-03-14T10:42:15;23.30;43.40
15983;DHT22;14442;50.196;8.096;2023-03-14T10:44:43;23.30;43.40
15983;DHT22;14442;50.196;8.096;2023-03-14T10:47:17;23.30;43.40
15983;DHT22;14442;50.196;8.096;2023-03-14T10:49:46;23.30;43.40
15983;DHT22;14442;50.196;8.096;2023-03-14T10:52:18;23.30;43.50
15983;DHT22;14442;50.196;8.096;2023-03-14T10:54:54;23.30;43.50
15983;DHT22;14442;50.196;8.096;2023-03-14T10:57:22;23.30;43.50
15983;DHT22;14442;50.196;8.096;2023-03-14T10:59:50;23.30;43.40
15983;DHT22;14442;50.196;8.096;2023-03-14T11:02:34;23.30;43.50
15983;DHT22;14442;50.196;8.096;2023-03-14T11:05:15;23.20;43.30
15983;DHT22;14442;50.196;8.096;2023-03-14T11:07:45;23.30;43.50
15983;DHT22;14442;50.196;8.096;2023-03-14T11:10:18;23.30;43.40
15983;DHT22;14442;50.196;8.096;2023-03-14T11:12:55;23.20;43.30
15983;DHT22;14442;50.196;8.096;2023-03-14T11:15:34;23.20;43.30
15983;DHT22;14442;50.196;8.096;2023-03-14T11:18:18;23.20;43.40
15983;DHT22;14442;50.196;8.096;2023-03-14T11:20:52;23.20;43.30
15983;DHT22;14442;50.196;8.096;2023-03-14T11:23:22;23.20;43.30
15983;DHT22;14442;50.196;8.096;2023-03-14T11:25:56;23.20;43.40
15983;DHT22;14442;50.196;8.096;2023-03-14T11:28:29;23.20;43.40
15983;DHT22;14442;50.196;8.096;2023-03-14T11:31:04;23.20;43.30
15983;DHT22;14442;50.196;8.096;2023-03-14T11:33:37;23.10;43.30
15983;DHT22;14442;50.196;8.096;2023-03-14T11:36:07;23.10;43.00
15983;DHT22;14442;50.196;8.096;2023-03-14T11:38:38;23.10;42.90
15983;DHT22;14442;50.196;8.096;2023-03-14T11:41:12;23.10;42.80
15983;DHT22;14442;50.196;8.096;2023-03-14T11:43:41;23.10;42.80
15983;DHT22;14442;50.196;8.096;2023-03-14T11:46:16;23.10;42.90
15983;DHT22;14442;50.196;8.096;2023-03-14T11:48:48;23.00;42.80
15983;DHT22;14442;50.196;8.096;2023-03-14T11:51:23;23.00;42.80
15983;DHT22;14442;50.196;8.096;2023-03-14T11:53:56;23.00;42.80
15983;DHT22;14442;50.196;8.096;2023-03-14T11:56:29;23.00;42.70
15983;DHT22;14442;50.196;8.096;2023-03-14T11:59:01;22.90;42.60
15983;DHT22;14442;50.196;8.096;2023-03-14T12:01:40;22.90;42.70
15983;DHT22;14442;50.196;8.096;2023-03-14T12:04:15;22.90;42.80
15983;DHT22;14442;50.196;8.096;2023-03-14T12:06:48;22.90;42.90
15983;DHT22;14442;50.196;8.096;2023-03-14T12:09:16;22.90;43.00
15983;DHT22;14442;50.196;8.096;2023-03-14T12:11:48;22.90;43.00
15983;DHT22;14442;50.196;8.096;2023-03-14T12:14:21;22.80;42.90
15983;DHT22;14442;50.196;8.096;2023-03-14T12:16:50;22.90;42.90
15983;DHT22;14442;50.196;8.096;2023-03-14T12:19:28;22.90;43.00
15983;DHT22;14442;50.196;8.096;2023-03-14T12:21:59;22.80;42.70
15983;DHT22;14442;50.196;8.096;2023-03-14T12:24:28;22.90;42.70
15983;DHT22;14442;50.196;8.096;2023-03-14T12:26:58;22.80;42.70
15983;DHT22;14442;50.196;8.096;2023-03-14T12:29:25;22.80;42.80
15983;DHT22;14442;50.196;8.096;2023-03-14T12:32:08;22.80;42.70
15983;DHT22;14442;50.196;8.096;2023-03-14T12:34:39;22.80;42.60
15983;DHT22;14442;50.196;8.096;2023-03-14T12:37:30;22.70;42.60
15983;DHT22;14442;50.196;8.096;2023-03-14T12:40:16;22.70;42.80
15983;DHT22;14442;50.196;8.096;2023-03-14T12:42:54;22.70;42.70
15983;DHT22;14442;50.196;8.096;2023-03-14T12:45:28;22.70;42.80
15983;DHT22;14442;50.196;8.096;2023-03-14T12:48:05;22.70;42.80
15983;DHT22;14442;50.196;8.096;2023-03-14T12:50:36;22.70;42.70
15983;DHT22;14442;50.196;8.096;2023-03-14T12:53:59;22.70;42.70
15983;DHT22;14442;50.196;8.096;2023-03-14T12:56:55;22.70;42.90
15983;DHT22;14442;50.196;8.096;2023-03-14T12:59:35;22.70;43.10
15983;DHT22;14442;50.196;8.096;2023-03-14T13:02:17;22.60;43.00
15983;DHT22;14442;50.196;8.096;2023-03-14T13:04:48;22.70;42.90
15983;DHT22;14442;50.196;8.096;2023-03-14T13:07:31;22.70;42.90
15983;DHT22;14442;50.196;8.096;2023-03-14T13:10:21;22.70;42.90
15983;DHT22;14442;50.196;8.096;2023-03-14T13:12:52;22.70;42.90
15983;DHT22;14442;50.196;8.096;2023-03-14T13:15:24;22.70;42.80
15983;DHT22;14442;50.196;8.096;2023-03-14T13:17:54;22.80;42.90
15983;DHT22;14442;50.196;8.096;2023-03-14T13:20:27;22.80;42.90
15983;DHT22;14442;50.196;8.096;2023-03-14T13:22:55;22.80;42.80
15983;DHT22;14442;50.196;8.096;2023-03-14T13:25:23;22.80;42.80
15983;DHT22;14442;50.196;8.096;2023-03-14T13:27:52;22.80;42.80
15983;DHT22;14442;50.196;8.096;2023-03-14T13:30:22;22.80;43.20
15983;DHT22;14442;50.196;8.096;2023-03-14T13:32:51;22.80;42.80
15983;DHT22;14442;50.196;8.096;2023-03-14T13:35:21;22.70;42.90
15983;DHT22;14442;50.196;8.096;2023-03-14T13:37:54;22.80;43.10
15983;DHT22;14442;50.196;8.096;2023-03-14T13:40:26;22.80;43.10
15983;DHT22;14442;50.196;8.096;2023-03-14T13:43:03;22.70;43.00
15983;DHT22;14442;50.196;8.096;2023-03-14T13:45:30;22.80;43.30
15983;DHT22;14442;50.196;8.096;2023-03-14T13:47:57;22.80;43.30
15983;DHT22;14442;50.196;8.096;2023-03-14T13:50:24;22.80;43.50
15983;DHT22;14442;50.196;8.096;2023-03-14T13:52:55;22.80;44.50
15983;DHT22;14442;50.196;8.096;2023-03-14T13:55:23;22.80;43.90
15983;DHT22;14442;50.196;8.096;2023-03-14T13:57:51;22.80;43.30
15983;DHT22;14442;50.196;8.096;2023-03-14T14:00:21;22.80;43.30
15983;DHT22;14442;50.196;8.096;2023-03-14T14:02:52;22.90;43.40
15983;DHT22;14442;50.196;8.096;2023-03-14T14:05:19;23.00;44.20
15983;DHT22;14442;50.196;8.096;2023-03-14T14:07:47;23.20;46.10
15983;DHT22;14442;50.196;8.096;2023-03-14T14:10:15;23.30;49.10
15983;DHT22;14442;50.196;8.096;2023-03-14T14:12:46;23.20;46.50
15983;DHT22;14442;50.196;8.096;2023-03-14T14:15:18;23.00;45.70
15983;DHT22;14442;50.196;8.096;2023-03-14T14:17:49;22.80;44.90
15983;DHT22;14442;50.196;8.096;2023-03-14T14:20:22;22.70;44.70
15983;DHT22;14442;50.196;8.096;2023-03-14T14:22:49;22.60;44.70
15983;DHT22;14442;50.196;8.096;2023-03-14T14:25:17;22.50;44.70
15983;DHT22;14442;50.196;8.096;2023-03-14T14:27:47;22.50;44.60
15983;DHT22;14442;50.196;8.096;2023-03-14T14:30:39;22.40;44.30
15983;DHT22;14442;50.196;8.096;2023-03-14T14:33:18;22.50;44.70
15983;DHT22;14442;50.196;8.096;2023-03-14T14:35:51;22.70;44.60
15983;DHT22;14442;50.196;8.096;2023-03-14T14:38:19;22.80;45.10
15983;DHT22;14442;50.196;8.096;2023-03-14T14:40:49;22.90;44.90
15983;DHT22;14442;50.196;8.096;2023-03-14T14:43:21;22.90;44.80
15983;DHT22;14442;50.196;8.096;2023-03-14T14:45:50;22.90;45.70
15983;DHT22;14442;50.196;8.096;2023-03-14T14:48:20;23.00;45.80
15983;DHT22;14442;50.196;8.096;2023-03-14T14:50:59;22.90;45.70
15983;DHT22;14442;50.196;8.096;2023-03-14T14:53:29;22.80;45.30
15983;DHT22;14442;50.196;8.096;2023-03-14T14:55:57;22.80;45.00
15983;DHT22;14442;50.196;8.096;2023-03-14T14:58:27;22.80;44.90
15983;DHT22;14442;50.196;8.096;2023-03-14T15:00:58;22.70;44.60
15983;DHT22;14442;50.196;8.096;2023-03-14T15:03:30;22.70;44.60
15983;DHT22;14442;50.196;8.096;2023-03-14T15:05:57;22.70;44.60
15983;DHT22;14442;50.196;8.096;2023-03-14T15:08:25;22.70;44.50
15983;DHT22;14442;50.196;8.096;2023-03-14T15:10:53;22.70;44.40
15983;DHT22;14442;50.196;8.096;2023-03-14T15:13:20;22.70;44.40
15983;DHT22;14442;50.196;8.096;2023-03-14T15:15:49;22.60;44.20
15983;DHT22;14442;50.196;8.096;2023-03-14T15:18:21;22.60;44.30
15983;DHT22;14442;50.196;8.096;2023-03-14T15:20:48;22.60;44.30
15983;DHT22;14442;50.196;8.096;2023-03-14T15:23:17;22.50;44.20
15983;DHT22;14442;50.196;8.096;2023-03-14T15:25:44;22.60;44.50
15983;DHT22;14442;50.196;8.096;2023-03-14T15:28:20;22.60;44.10
15983;DHT22;14442;50.196;8.096;2023-03-14T15:30:48;22.60;44.10
15983;DHT22;14442;50.196;8.096;2023-03-14T15:33:16;22.60;44.00
15983;DHT22;14442;50.196;8.096;2023-03-14T15:35:43;22.60;43.90
15983;DHT22;14442;50.196;8.096;2023-03-14T15:38:11;22.60;43.90
15983;DHT22;14442;50.196;8.096;2023-03-14T15:40:38;22.60;43.90
15983;DHT22;14442;50.196;8.096;2023-03-14T15:43:05;22.60;43.80
15983;DHT22;14442;50.196;8.096;2023-03-14T15:45:32;22.60;43.80